Pays
Station

 

Conditions  météo  pour  Ho Chi Minh  -  Viet Nam    Viet Nam

  
32 °C
    
 
 

METAR pour Ho Chi Minh :

VVTS 180930Z 24012KT 9999 SCT017 FEW020CB 32/26 Q1005 NOSIG

 

Voici le bulletin pour Ho Chi Minh - Viet Nam.
 
Le bulletin a été fait il y a 10 minutes, à 09:30 UTC .
Le vent soufflait à la vitesse de 6.2 mètres par seconde de Ouest/Sud-ouest (240°).
 
La température était de 32 °C, avec un point de rosée à 26 °C.
La température ressentie était de 41 °C.
 
La pression atmosphérique était de 1005 hPa.
L'humidité relative était de 70.7%.
 
Il y avait 3 à 4/8ème de nébulosité à une hauteur de 518 mètres et 1 à 2/8ème cumulonimbus de nébulosité à une hauteur de 610 mètres.
 
La visibilité globale était de supérieure à 10 kilomètres.
 

 
 
 

Pays :   A   B   C   D   E   F   G   H   I   J   K   L   M   N   O   P   Q   R   S   T   U   V   W   Y   Z

 

Partenaires :  Info Météo avec Met'info
Météo Marine avec MeteoMarine.net
Infos Site  |  Infos Légales  |  Crédits  |  Confidentialité
Contactez-nous  |  Ajouter aux favoris
© 2013-2019 METAR - Tous droits réservés